Time;durP1;ratioP1;P1;durP2;ratioP2;P2;SDS_P1;SDS_P2;PMS_P1;PMS_P2;Temp;Humidity;BMP_temperature;BMP_pressure;BME280_temperature;BME280_humidity;BME280_pressure;Samples;Min_cycle;Max_cycle;Signal;HPM_P1;HPM_P2
2022/01/03 00:00:38;;;;;;;10.75;2.00;;;;;;;19.05;57.03;101069.53;4955699;28;20046;-82
2022/01/03 00:03:04;;;;;;;11.15;1.90;;;;;;;19.08;57.03;101071.06;4971328;28;20053;-81
2022/01/03 00:05:30;;;;;;;8.48;1.90;;;;;;;19.04;57.01;101056.38;4952079;28;20050;-81
2022/01/03 00:07:57;;;;;;;12.00;1.95;;;;;;;19.05;57.42;101066.88;4953344;28;20044;-82
2022/01/03 00:10:23;;;;;;;8.63;1.77;;;;;;;19.03;57.12;101063.53;4936074;29;20067;-82
2022/01/03 00:12:49;;;;;;;7.75;1.75;;;;;;;19.02;57.53;101064.50;4920331;29;20053;-82
2022/01/03 00:15:15;;;;;;;12.25;2.00;;;;;;;19.01;57.00;101057.50;4926376;29;20064;-82
2022/01/03 00:17:41;;;;;;;7.45;1.60;;;;;;;19.01;57.26;101060.16;4930599;29;20043;-82
2022/01/03 00:20:07;;;;;;;12.07;1.88;;;;;;;18.98;57.28;101063.06;4952798;29;20508;-82
2022/01/03 00:23:01;;;;;;;8.38;2.03;;;;;;;18.97;56.87;101069.38;4920239;29;20043;-82
2022/01/03 00:25:26;;;;;;;11.13;2.03;;;;;;;18.97;57.24;101066.72;4949278;29;20051;-82
2022/01/03 00:28:10;;;;;;;9.38;1.90;;;;;;;19.00;57.17;101071.78;4916792;29;20044;-82
2022/01/03 00:30:37;;;;;;;12.63;2.00;;;;;;;18.99;57.27;101080.72;4932291;29;20496;-82
2022/01/03 00:33:03;;;;;;;7.82;1.58;;;;;;;18.95;57.30;101066.00;4964399;28;20047;-82
2022/01/03 00:35:28;;;;;;;10.77;2.15;;;;;;;18.95;56.69;101074.00;4971009;28;20506;-82
2022/01/03 00:37:54;;;;;;;9.73;1.48;;;;;;;18.94;56.87;101073.16;4950747;29;20039;-82
2022/01/03 00:40:20;;;;;;;8.05;1.80;;;;;;;18.92;56.77;101080.41;4931924;28;20044;-82
2022/01/03 00:42:46;;;;;;;10.30;2.17;;;;;;;18.87;56.75;101068.53;4948343;29;20076;-82
2022/01/03 00:45:11;;;;;;;11.23;2.13;;;;;;;18.87;57.38;101058.72;4947946;28;20613;-82
2022/01/03 00:47:37;;;;;;;11.98;2.10;;;;;;;18.88;56.99;101075.50;4934018;28;20481;-82
2022/01/03 00:50:10;;;;;;;10.27;1.65;;;;;;;18.85;56.37;101065.16;4948092;28;20058;-82
2022/01/03 00:52:36;;;;;;;9.93;2.05;;;;;;;18.82;57.32;101078.72;4932226;29;20131;-82
2022/01/03 00:55:03;;;;;;;10.27;1.98;;;;;;;18.87;57.39;101081.81;4932057;28;20456;-82
2022/01/03 00:57:53;;;;;;;9.75;1.75;;;;;;;18.84;56.94;101079.44;4948184;29;20499;-82
2022/01/03 01:00:19;;;;;;;7.50;1.58;;;;;;;18.83;56.91;101081.22;4947785;28;20058;-82
2022/01/03 01:02:50;;;;;;;12.23;2.22;;;;;;;18.83;56.85;101081.22;4933216;28;20130;-82
2022/01/03 01:05:18;;;;;;;10.10;2.10;;;;;;;18.80;56.92;101065.53;4956136;28;20526;-82
2022/01/03 01:07:44;;;;;;;7.93;1.90;;;;;;;18.80;56.74;101072.69;4953964;28;20047;-82
2022/01/03 01:10:09;;;;;;;11.02;2.10;;;;;;;18.81;56.46;101085.84;4953521;28;20049;-81
2022/01/03 01:12:35;;;;;;;11.23;2.22;;;;;;;18.81;56.55;101088.50;4971170;28;20440;-81
2022/01/03 01:15:00;;;;;;;12.02;2.30;;;;;;;18.72;56.45;101079.50;4954334;28;20514;-81
2022/01/03 01:17:26;;;;;;;11.23;2.10;;;;;;;18.77;56.46;101084.44;4971203;28;20412;-81
2022/01/03 01:19:51;;;;;;;9.27;1.85;;;;;;;18.75;56.09;101088.22;4954101;28;20051;-81
2022/01/03 01:22:19;;;;;;;9.23;2.17;;;;;;;18.71;56.92;101083.13;4951501;28;20393;-82
2022/01/03 01:24:59;;;;;;;9.65;1.80;;;;;;;18.73;56.50;101075.03;4971487;28;20046;-82
2022/01/03 01:31:00;;;;;;;8.18;1.80;;;;;;;18.69;56.29;101087.72;4971157;28;20061;-81
2022/01/03 01:33:26;;;;;;;11.10;2.05;;;;;;;18.67;56.57;101076.38;4953584;28;20039;-81
2022/01/03 01:35:55;;;;;;;9.20;1.63;;;;;;;18.70;56.12;101081.44;4971302;28;20384;-81
2022/01/03 01:38:23;;;;;;;11.37;1.97;;;;;;;18.68;56.25;101083.41;4969559;28;20093;-82
2022/01/03 01:40:52;;;;;;;10.95;2.00;;;;;;;18.67;56.49;101079.03;4964678;28;20547;-82
2022/01/03 01:43:19;;;;;;;10.73;1.67;;;;;;;18.67;56.25;101080.84;4985215;28;20054;-82
2022/01/03 01:45:47;;;;;;;10.88;2.25;;;;;;;18.62;56.19;101078.63;4969113;28;20138;-82
2022/01/03 01:48:12;;;;;;;9.23;2.13;;;;;;;18.63;56.32;101080.28;4968881;28;20045;-82
2022/01/03 01:50:39;;;;;;;9.15;1.88;;;;;;;18.63;56.48;101074.97;4985488;28;20035;-82
2022/01/03 01:53:05;;;;;;;11.27;2.10;;;;;;;18.61;56.33;101082.22;4969015;28;20415;-82
2022/01/03 01:55:31;;;;;;;9.63;1.92;;;;;;;18.62;56.35;101081.28;4970516;28;20051;-83
2022/01/03 01:57:58;;;;;;;8.68;1.75;;;;;;;18.62;56.43;101081.28;4985648;28;20046;-82
2022/01/03 02:00:23;;;;;;;10.35;1.80;;;;;;;18.58;56.44;101082.50;4970446;28;20053;-82
2022/01/03 02:02:49;;;;;;;10.77;2.10;;;;;;;18.61;56.05;101079.56;4970801;28;20074;-82
2022/01/03 02:05:29;;;;;;;10.02;2.03;;;;;;;18.58;55.96;101081.66;4985246;28;20388;-81
2022/01/03 02:08:01;;;;;;;;;;;;;;;18.56;56.50;101080.97;4958554;28;20484;-82
2022/01/03 02:10:35;;;;;;;8.57;1.70;;;;;;;18.49;56.39;101078.84;4945073;28;19984;-82
2022/01/03 02:13:00;;;;;;;9.40;1.98;;;;;;;18.52;55.92;101077.75;4949694;28;20137;-82
2022/01/03 02:15:26;;;;;;;11.90;1.90;;;;;;;18.54;56.22;101091.72;4952836;28;20055;-82
2022/01/03 02:17:51;;;;;;;11.48;2.35;;;;;;;18.50;56.42;101082.34;4970391;28;20053;-82
2022/01/03 02:20:21;;;;;;;9.60;1.63;;;;;;;18.47;55.75;101085.25;4936238;28;20077;-82
2022/01/03 02:22:46;;;;;;;9.23;2.30;;;;;;;18.52;55.84;101085.72;4968572;28;20053;-82
2022/01/03 02:25:13;;;;;;;11.77;2.05;;;;;;;18.49;55.70;101083.31;4968191;28;20126;-82
2022/01/03 02:27:38;;;;;;;10.43;2.10;;;;;;;18.47;55.86;101085.25;4952823;28;20042;-82
2022/01/03 02:30:06;;;;;;;10.23;1.92;;;;;;;18.49;55.55;101094.78;4968251;28;20068;-82
2022/01/03 02:32:31;;;;;;;9.65;1.98;;;;;;;18.49;55.81;101092.13;4968876;28;20041;-82
2022/01/03 02:34:57;;;;;;;13.80;1.98;;;;;;;18.45;56.05;101092.50;4968797;28;20038;-82
2022/01/03 02:37:23;;;;;;;9.15;1.70;;;;;;;18.46;56.14;101089.72;4968156;28;20047;-82
2022/01/03 02:39:49;;;;;;;9.80;2.20;;;;;;;18.46;56.13;101084.41;4980257;28;20049;-82
2022/01/03 02:42:15;;;;;;;12.63;1.88;;;;;;;18.47;56.31;101087.91;4968386;28;20464;-82
2022/01/03 02:44:43;;;;;;;11.88;2.17;;;;;;;18.44;55.63;101085.50;4984973;28;20098;-81
2022/01/03 02:47:08;;;;;;;8.93;1.77;;;;;;;18.44;56.27;101090.84;4969827;28;20047;-81
2022/01/03 02:49:33;;;;;;;8.02;1.50;;;;;;;18.44;56.04;101080.19;4969892;28;20042;-82
2022/01/03 02:51:59;;;;;;;9.05;2.08;;;;;;;18.42;56.04;101090.09;4984658;28;20546;-82
2022/01/03 02:54:24;;;;;;;10.85;1.95;;;;;;;18.39;56.45;101088.56;4967692;28;20439;-82
2022/01/03 02:56:50;;;;;;;10.48;2.30;;;;;;;18.36;55.86;101082.66;4984143;28;20043;-82
2022/01/03 02:59:16;;;;;;;10.35;2.17;;;;;;;18.42;56.16;101085.63;4967447;28;20054;-81
2022/01/03 03:01:45;;;;;;;10.68;2.17;;;;;;;18.39;55.91;101088.56;4967930;28;20043;-82
2022/01/03 03:04:10;;;;;;;8.55;1.75;;;;;;;18.37;55.62;101079.91;4978494;28;20077;-82
2022/01/03 03:06:36;;;;;;;11.15;2.10;;;;;;;18.38;55.89;101080.72;4951953;28;20042;-82
2022/01/03 03:09:07;;;;;;;9.60;2.03;;;;;;;18.39;55.36;101085.06;4951900;28;20047;-81
2022/01/03 03:11:35;;;;;;;9.77;2.10;;;;;;;18.36;55.95;101070.22;4957837;28;20512;-81
2022/01/03 03:14:01;;;;;;;9.98;1.80;;;;;;;18.33;55.79;101074.97;4949852;28;20078;-81
2022/01/03 03:16:27;;;;;;;10.15;1.73;;;;;;;18.33;55.83;101078.44;4933303;29;20051;-81
2022/01/03 03:18:52;;;;;;;11.93;2.00;;;;;;;18.32;55.94;101074.13;4950284;28;20039;-81
2022/01/03 03:21:18;;;;;;;11.52;2.10;;;;;;;18.31;55.65;101071.63;4964482;28;20071;-81
2022/01/03 03:23:43;;;;;;;12.40;2.15;;;;;;;18.32;55.61;101066.16;4948612;28;20097;-82
2022/01/03 03:26:10;;;;;;;9.68;1.65;;;;;;;18.32;56.05;101081.25;4964293;28;20043;-81
2022/01/03 03:28:35;;;;;;;10.82;1.88;;;;;;;18.30;55.65;101068.13;4949971;28;20047;-81
2022/01/03 03:31:01;;;;;;;10.75;1.83;;;;;;;18.31;55.82;101068.97;4932924;29;20095;-81
2022/01/03 03:33:29;;;;;;;12.27;1.85;;;;;;;18.29;55.52;101068.25;4949493;28;20047;-81
2022/01/03 03:35:54;;;;;;;11.27;1.88;;;;;;;18.31;55.91;101069.78;4950008;29;20208;-81
2022/01/03 03:38:23;;;;;;;10.35;2.17;;;;;;;18.30;55.56;101077.88;4949644;29;20504;-81
2022/01/03 03:40:49;;;;;;;13.63;2.25;;;;;;;18.30;56.06;101072.56;4932949;29;20502;-81
2022/01/03 03:43:14;;;;;;;13.70;2.00;;;;;;;18.22;55.63;101060.78;4948387;28;20031;-81
2022/01/03 03:45:40;;;;;;;10.98;1.77;;;;;;;18.23;55.91;101062.47;4950138;29;20054;-81
2022/01/03 03:48:06;;;;;;;15.15;2.22;;;;;;;18.19;56.01;101053.09;4949625;29;20086;-82
2022/01/03 03:50:32;;;;;;;11.48;2.20;;;;;;;18.20;55.57;101078.66;4950213;29;20549;-82
2022/01/03 03:52:57;;;;;;;9.60;1.90;;;;;;;18.23;56.18;101062.47;4949056;28;20048;-81
2022/01/03 03:55:23;;;;;;;13.45;2.33;;;;;;;18.18;55.44;101059.38;4949747;29;20110;-81
2022/01/03 03:57:48;;;;;;;10.35;2.22;;;;;;;18.20;55.71;101057.41;4932798;29;20485;-81
2022/01/03 04:00:16;;;;;;;11.77;2.60;;;;;;;18.20;55.94;101057.41;4949545;29;20074;-81
2022/01/03 04:02:41;;;;;;;12.60;2.25;;;;;;;18.21;56.05;101048.50;4949684;29;20047;-82
2022/01/03 04:05:07;;;;;;;13.77;2.13;;;;;;;18.22;55.83;101060.78;4959770;28;20058;-82
2022/01/03 04:07:33;;;;;;;9.32;1.88;;;;;;;18.16;55.72;101056.00;4964582;28;20191;-82
2022/01/03 04:09:58;;;;;;;12.05;1.98;;;;;;;18.15;55.30;101057.00;4950400;28;20050;-81
2022/01/03 04:12:23;;;;;;;14.50;2.30;;;;;;;18.16;55.56;101049.88;4946397;28;20040;-80
2022/01/03 04:14:49;;;;;;;9.32;2.17;;;;;;;18.17;55.81;101055.03;4928186;29;20050;-81
2022/01/03 04:17:15;;;;;;;10.43;2.22;;;;;;;18.19;55.87;101053.09;4932510;29;20103;-81
2022/01/03 04:19:40;;;;;;;13.48;2.40;;;;;;;18.18;55.41;101048.75;4934054;29;20421;-81
2022/01/03 04:22:06;;;;;;;12.02;2.13;;;;;;;18.15;55.88;101043.72;4932291;29;20044;-81
2022/01/03 04:24:31;;;;;;;13.45;2.25;;;;;;;18.19;55.42;101060.22;4916995;29;20082;-81
2022/01/03 04:26:57;;;;;;;8.45;1.63;;;;;;;18.14;55.37;101042.00;4916946;29;20452;-82
2022/01/03 04:29:23;;;;;;;9.10;1.88;;;;;;;18.14;55.60;101047.31;4932170;29;20048;-81
2022/01/03 04:31:48;;;;;;;12.88;2.17;;;;;;;18.14;55.67;101046.50;4932597;29;20032;-82
2022/01/03 04:34:14;;;;;;;9.50;1.92;;;;;;;18.13;55.45;101056.28;4926653;29;20043;-82
2022/01/03 04:36:39;;;;;;;12.00;2.15;;;;;;;18.13;55.59;101044.81;4951631;28;20043;-82
2022/01/03 04:39:05;;;;;;;10.35;2.03;;;;;;;18.10;55.78;101047.72;4934981;29;20059;-82
2022/01/03 04:41:30;;;;;;;11.02;2.20;;;;;;;18.09;55.50;101041.59;4935755;29;20043;-82
2022/01/03 04:43:56;;;;;;;11.80;2.35;;;;;;;18.08;55.75;101042.53;4935670;29;20047;-82
2022/01/03 04:46:21;;;;;;;11.60;2.30;;;;;;;18.10;55.68;101056.53;4952199;29;20073;-82
2022/01/03 04:48:46;;;;;;;11.52;2.15;;;;;;;18.10;55.62;101048.56;4935283;29;20042;-82
2022/01/03 04:51:12;;;;;;;13.00;2.00;;;;;;;18.04;55.50;101038.47;4935063;29;20859;-81
2022/01/03 04:53:39;;;;;;;12.55;2.28;;;;;;;18.10;55.71;101037.13;4935298;29;20047;-82
2022/01/03 04:56:10;;;;;;;11.10;2.20;;;;;;;18.07;55.58;101040.88;4934964;29;20039;-82
2022/01/03 04:58:35;;;;;;;11.45;2.20;;;;;;;18.05;55.52;101042.81;4935491;29;20419;-81
2022/01/03 05:01:01;;;;;;;10.85;2.10;;;;;;;18.07;55.66;101048.81;4950842;28;20039;-82
2022/01/03 05:03:26;;;;;;;13.27;2.05;;;;;;;18.07;55.38;101040.88;4951919;28;20031;-81
2022/01/03 05:05:52;;;;;;;12.38;2.40;;;;;;;18.07;55.58;101045.34;4968895;28;20054;-81
2022/01/03 05:08:17;;;;;;;13.15;2.45;;;;;;;18.09;55.44;101048.72;4971691;28;20126;-81
2022/01/03 05:10:43;;;;;;;11.95;2.38;;;;;;;18.08;55.54;101036.38;4970365;28;20097;-81
2022/01/03 05:13:08;;;;;;;12.02;2.47;;;;;;;18.06;55.61;101033.03;4953857;28;20087;-81
2022/01/03 05:15:34;;;;;;;12.05;2.20;;;;;;;18.06;55.35;101033.88;4971473;28;20046;-81
2022/01/03 05:17:59;;;;;;;11.02;2.55;;;;;;;18.00;55.45;101023.78;4970052;28;20039;-81
2022/01/03 05:20:25;;;;;;;15.07;2.67;;;;;;;18.02;55.52;101021.84;4970603;28;20682;-80
2022/01/03 05:22:50;;;;;;;13.40;2.30;;;;;;;18.06;55.93;101023.25;4970995;28;20054;-81
2022/01/03 05:25:16;;;;;;;11.73;2.22;;;;;;;18.02;55.53;101032.47;4970746;28;20051;-81
2022/01/03 05:27:42;;;;;;;13.82;2.80;;;;;;;18.00;55.47;101029.09;4953827;28;20126;-81
2022/01/03 05:30:08;;;;;;;13.50;2.55;;;;;;;18.02;55.55;101032.47;4970712;28;20046;-81
2022/01/03 05:32:33;;;;;;;14.25;2.30;;;;;;;17.98;55.72;101012.44;4953972;28;20062;-81
2022/01/03 05:34:59;;;;;;;13.15;2.40;;;;;;;17.96;55.31;101022.38;4969625;28;20047;-81
2022/01/03 05:37:24;;;;;;;10.68;1.65;;;;;;;17.96;55.19;101012.59;4970802;28;20129;-81
2022/01/03 05:39:50;;;;;;;11.93;2.33;;;;;;;17.97;55.16;101008.97;4971086;28;20059;-81
2022/01/03 05:42:15;;;;;;;13.95;2.40;;;;;;;17.94;55.41;101008.38;4969239;28;20054;-81
2022/01/03 05:44:41;;;;;;;14.05;2.22;;;;;;;17.94;55.48;101003.06;4971248;28;20046;-81
2022/01/03 05:47:06;;;;;;;14.80;2.60;;;;;;;17.97;55.51;101008.13;4969400;28;20563;-81
2022/01/03 05:49:31;;;;;;;11.20;2.03;;;;;;;18.02;55.17;101008.56;4969993;28;20045;-80
2022/01/03 05:51:57;;;;;;;15.73;2.53;;;;;;;18.06;55.46;101017.94;4953780;28;20035;-81
2022/01/03 05:54:22;;;;;;;9.85;2.33;;;;;;;18.08;55.02;101004.53;4953130;28;20053;-81
2022/01/03 05:56:48;;;;;;;11.20;2.30;;;;;;;18.13;55.14;101011.13;4969542;28;20061;-82
2022/01/03 05:59:13;;;;;;;14.15;2.35;;;;;;;18.18;55.26;101011.59;4953113;28;20038;-82
2022/01/03 06:01:40;;;;;;;11.27;2.10;;;;;;;18.22;55.69;101005.03;4968851;28;20396;-83
2022/01/03 06:04:13;;;;;;;8.95;2.08;;;;;;;18.31;55.57;101006.06;4952467;28;20051;-82
2022/01/03 06:06:54;;;;;;;11.57;2.20;;;;;;;18.44;55.26;100995.19;4969035;28;20500;-83
2022/01/03 06:09:19;;;;;;;9.55;1.77;;;;;;;18.54;55.14;101005.84;4954288;28;20643;-84
2022/01/03 06:11:45;;;;;;;7.93;1.83;;;;;;;18.64;55.01;100996.91;4968778;28;20343;-84
2022/01/03 06:14:10;;;;;;;14.13;2.50;;;;;;;18.67;54.88;100995.81;4936447;28;20038;-83
2022/01/03 06:16:36;;;;;;;11.50;2.38;;;;;;;18.67;55.18;101004.63;4953079;28;20058;-84
2022/01/03 06:19:01;;;;;;;10.45;1.90;;;;;;;18.69;54.96;100999.19;4952566;28;20175;-83
2022/01/03 06:21:27;;;;;;;10.90;1.90;;;;;;;18.72;54.67;101009.56;4953373;28;20039;-85
2022/01/03 06:23:52;;;;;;;9.82;1.90;;;;;;;18.68;55.57;100995.69;4952986;28;20786;-84
2022/01/03 06:26:18;;;;;;;13.13;2.55;;;;;;;18.73;55.42;100996.13;4952588;28;20066;-84
2022/01/03 06:28:43;;;;;;;9.73;1.75;;;;;;;18.76;55.29;100994.19;4952594;28;20408;-83
2022/01/03 06:31:08;;;;;;;9.20;2.03;;;;;;;18.80;54.96;100987.63;4936062;28;20372;-84
2022/01/03 06:33:34;;;;;;;11.80;2.33;;;;;;;18.80;55.71;100985.81;4951168;28;20344;-83
2022/01/03 06:35:59;;;;;;;10.20;1.88;;;;;;;18.85;55.55;100982.75;4969787;28;20554;-84
2022/01/03 06:38:25;;;;;;;12.45;2.00;;;;;;;18.89;55.20;100977.00;4967841;28;20034;-83
2022/01/03 06:40:50;;;;;;;7.05;1.67;;;;;;;18.93;54.94;100985.56;4968381;28;20415;-83
2022/01/03 06:43:16;;;;;;;12.05;2.00;;;;;;;18.92;55.54;100983.88;4969051;28;20058;-84
2022/01/03 06:45:41;;;;;;;12.07;2.13;;;;;;;18.97;54.56;100984.31;4968692;28;20698;-84
2022/01/03 06:48:07;;;;;;;11.13;2.35;;;;;;;18.95;55.13;100979.13;4969240;28;20047;-84
2022/01/03 06:50:34;;;;;;;9.48;1.90;;;;;;;18.98;55.38;100985.97;4969888;28;20431;-83
2022/01/03 06:52:59;;;;;;;8.65;1.95;;;;;;;18.99;54.57;100990.34;4949136;28;20039;-82
2022/01/03 06:55:24;;;;;;;14.93;3.13;;;;;;;18.96;55.42;100995.94;4966195;28;20043;-82
2022/01/03 06:57:50;;;;;;;10.50;2.35;;;;;;;18.98;55.57;100993.13;4969936;28;20364;-83
2022/01/03 07:00:16;;;;;;;9.40;2.00;;;;;;;18.99;55.41;100985.03;4969188;28;20058;-83
2022/01/03 07:02:42;;;;;;;10.05;1.77;;;;;;;19.02;54.82;100986.53;4970768;28;20050;-84
2022/01/03 07:05:11;;;;;;;9.27;2.05;;;;;;;19.08;55.33;100976.19;4966258;28;20090;-81
2022/01/03 07:07:37;;;;;;;8.45;1.60;;;;;;;19.07;54.51;100982.50;4967483;28;20054;-82
2022/01/03 07:10:03;;;;;;;8.00;1.50;;;;;;;19.10;54.79;100979.56;4968562;28;20050;-83
2022/01/03 07:12:29;;;;;;;9.40;1.90;;;;;;;19.10;54.78;100992.84;4969439;28;20047;-83
2022/01/03 07:20:07;;;;;;;11.98;2.08;;;;;;;19.18;54.81;100993.00;4968756;28;20045;-83
2022/01/03 07:22:37;;;;;;;8.65;1.92;;;;;;;19.19;54.52;100988.53;4969363;28;20097;-85
2022/01/03 07:25:03;;;;;;;10.88;2.00;;;;;;;19.19;54.15;100981.38;4968228;28;20073;-84
2022/01/03 07:27:28;;;;;;;10.52;2.08;;;;;;;19.21;54.33;100983.91;4968331;28;20050;-83
2022/01/03 07:29:54;;;;;;;11.98;1.85;;;;;;;19.23;55.33;100991.72;4969267;28;20043;-83
2022/01/03 07:32:20;;;;;;;9.27;1.98;;;;;;;19.22;54.91;100993.56;4968533;28;20043;-85
2022/01/03 07:34:45;;;;;;;10.88;2.00;;;;;;;19.23;54.74;101002.38;4968826;28;20448;-82
2022/01/03 07:37:11;;;;;;;8.50;1.77;;;;;;;19.23;54.90;101005.03;4968785;28;20046;-86
2022/01/03 07:39:36;;;;;;;13.07;2.10;;;;;;;19.23;55.08;101011.19;4969162;28;20051;-84
2022/01/03 07:42:03;;;;;;;8.75;1.88;;;;;;;19.23;55.11;101003.22;4967258;28;20122;-85
2022/01/03 07:44:28;;;;;;;8.25;2.20;;;;;;;19.23;55.31;100997.88;4970851;28;20039;-87
2022/01/03 07:46:54;;;;;;;8.32;1.80;;;;;;;19.26;54.95;101004.75;4970846;28;20038;-84
2022/01/03 07:49:21;;;;;;;14.95;2.55;;;;;;;19.25;54.89;101006.59;4969818;28;20031;-83
2022/01/03 07:51:46;;;;;;;11.25;2.13;;;;;;;19.26;54.46;101002.09;4971782;28;20109;-83
2022/01/03 07:54:12;;;;;;;9.70;1.90;;;;;;;19.27;55.42;101004.59;4970276;28;20039;-84
2022/01/03 07:56:37;;;;;;;11.60;2.35;;;;;;;19.28;55.22;101019.59;4973010;28;20403;-84
2022/01/03 07:59:05;;;;;;;12.90;2.10;;;;;;;19.28;55.56;101016.09;4970766;28;20539;-82
2022/01/03 08:01:34;;;;;;;9.57;2.13;;;;;;;19.29;54.89;101009.81;4971866;28;20057;-84
2022/01/03 08:03:59;;;;;;;14.68;2.08;;;;;;;19.30;55.33;101009.63;4969938;28;20066;-86
2022/01/03 08:06:25;;;;;;;11.85;2.13;;;;;;;19.29;55.70;100999.16;4938696;28;20396;-84
2022/01/03 08:08:50;;;;;;;13.82;2.42;;;;;;;19.30;56.01;101009.63;4969549;28;20455;-84
2022/01/03 08:11:16;;;;;;;14.95;2.60;;;;;;;19.34;56.93;101003.09;4955015;28;20160;-84
2022/01/03 08:13:41;;;;;;;13.25;2.60;;;;;;;19.37;57.52;101007.28;4972567;28;20508;-83
2022/01/03 08:16:07;;;;;;;14.38;2.90;;;;;;;19.37;56.14;101000.16;4957214;28;20133;-82
2022/01/03 08:18:33;;;;;;;14.68;2.17;;;;;;;19.38;56.51;101009.78;4970224;28;20043;-85
2022/01/03 08:20:59;;;;;;;17.90;2.95;;;;;;;19.38;56.29;101006.31;4970783;28;20118;-84
2022/01/03 08:23:24;;;;;;;14.20;2.65;;;;;;;19.38;55.47;101007.13;4970473;28;20042;-84
2022/01/03 08:25:50;;;;;;;14.00;2.30;;;;;;;19.37;55.48;101007.28;4963672;28;20129;-84
2022/01/03 08:28:15;;;;;;;14.73;2.38;;;;;;;19.39;55.58;101015.94;4950605;28;20054;-84
2022/01/03 08:30:41;;;;;;;15.68;3.00;;;;;;;19.37;55.74;101013.44;4933996;29;20050;-84
2022/01/03 08:33:06;;;;;;;15.02;2.20;;;;;;;19.38;56.02;101006.31;4953241;28;20047;-84
2022/01/03 08:35:32;;;;;;;17.92;3.10;;;;;;;19.40;56.20;101012.34;4971452;28;20138;-84
2022/01/03 08:37:58;;;;;;;17.02;3.17;;;;;;;19.32;57.15;101015.66;4970949;28;20443;-84
2022/01/03 08:40:23;;;;;;;14.40;2.67;;;;;;;19.36;56.41;101002.94;4954363;28;20039;-82
2022/01/03 08:42:51;;;;;;;17.27;3.05;;;;;;;19.41;57.81;101021.97;4958966;28;20579;-80
2022/01/03 08:45:16;;;;;;;13.38;2.60;;;;;;;19.40;57.06;101025.63;4971563;28;21115;-80
2022/01/03 08:47:43;;;;;;;23.63;2.85;;;;;;;19.33;57.40;101019.16;4970726;28;20046;-80
2022/01/03 08:50:08;;;;;;;15.05;2.47;;;;;;;19.30;57.50;101019.44;4969132;28;20061;-81
2022/01/03 08:52:34;;;;;;;16.00;2.38;;;;;;;19.22;58.70;101014.84;4968412;28;20062;-82
2022/01/03 08:54:59;;;;;;;23.92;3.28;;;;;;;19.21;59.07;100999.00;4953165;28;20443;-80
2022/01/03 08:57:25;;;;;;;19.20;2.97;;;;;;;19.13;59.00;101011.19;4968698;28;20749;-80
2022/01/03 08:59:50;;;;;;;17.15;2.58;;;;;;;19.11;58.45;101014.97;4971434;28;20139;-80
2022/01/03 09:02:16;;;;;;;17.85;2.67;;;;;;;19.09;57.88;101014.28;4970834;28;20046;-81
2022/01/03 09:04:57;;;;;;;21.20;2.75;;;;;;;19.11;58.57;101013.13;4958784;28;20799;-81
2022/01/03 09:07:32;;;;;;;18.60;3.10;;;;;;;19.07;57.85;101011.75;4919540;29;20428;-81
2022/01/03 09:09:58;;;;;;;16.05;3.03;;;;;;;19.09;58.50;101017.78;4924506;28;20047;-82
2022/01/03 09:12:23;;;;;;;20.30;2.92;;;;;;;19.04;57.67;101009.34;4953305;28;20043;-81
2022/01/03 09:14:48;;;;;;;17.95;3.03;;;;;;;19.02;57.66;101006.00;4970967;28;20511;-83
2022/01/03 09:17:14;;;;;;;16.20;2.65;;;;;;;19.02;57.48;100995.38;4927740;28;20510;-82
2022/01/03 09:19:42;;;;;;;14.80;2.25;;;;;;;19.03;56.94;100997.03;4981448;28;20050;-86
2022/01/03 09:22:18;;;;;;;15.00;2.22;;;;;;;19.04;57.76;100997.88;4961290;28;20050;-87
2022/01/03 09:30:26;;;;;;;15.25;2.60;;;;;;;19.18;56.80;100998.31;4959272;28;20070;-85
2022/01/03 09:32:52;;;;;;;13.82;2.17;;;;;;;19.32;56.13;100981.09;4969339;28;20039;-85
2022/01/03 09:35:17;;;;;;;16.98;2.58;;;;;;;19.21;56.27;100985.69;4958757;28;20046;-83
2022/01/03 09:37:43;;;;;;;12.23;2.30;;;;;;;19.18;57.12;100985.03;4980179;28;20089;-85
2022/01/03 09:40:08;;;;;;;13.13;2.28;;;;;;;19.12;56.93;100974.94;4947305;29;20039;-82
2022/01/03 09:42:34;;;;;;;14.10;2.25;;;;;;;19.03;56.87;100975.78;4951644;29;20364;-82
2022/01/03 09:45:03;;;;;;;13.95;2.25;;;;;;;19.00;57.19;100965.41;4951199;29;20416;-82
2022/01/03 09:47:29;;;;;;;15.38;2.40;;;;;;;18.98;57.33;100978.00;4951018;29;20118;-84
2022/01/03 09:49:54;;;;;;;9.88;2.03;;;;;;;18.98;57.78;100983.31;4934069;29;20043;-82
2022/01/03 09:52:23;;;;;;;14.38;2.20;;;;;;;18.94;57.52;100974.78;4933374;29;20156;-82
2022/01/03 09:54:48;;;;;;;9.02;2.38;;;;;;;18.97;57.31;100978.16;4966369;28;20031;-82
2022/01/03 09:57:14;;;;;;;15.82;2.22;;;;;;;19.03;56.77;100986.41;4936529;28;20053;-82
2022/01/03 09:59:40;;;;;;;14.73;2.22;;;;;;;19.02;57.34;100978.56;4968206;28;20109;-83
2022/01/03 10:02:06;;;;;;;13.93;2.35;;;;;;;19.02;57.25;100981.22;4963870;28;20051;-84
2022/01/03 10:04:31;;;;;;;12.23;2.03;;;;;;;19.00;57.08;100978.72;4969471;28;20058;-84
2022/01/03 10:06:57;;;;;;;12.75;2.67;;;;;;;18.98;57.31;100980.66;4966966;28;20670;-84
2022/01/03 10:09:25;;;;;;;19.13;2.70;;;;;;;18.95;57.85;100979.13;4950851;28;20136;-84
2022/01/03 10:11:51;;;;;;;15.18;2.50;;;;;;;18.95;57.39;100984.44;4957947;28;20042;-84
2022/01/03 10:14:16;;;;;;;12.05;2.17;;;;;;;18.94;57.27;100987.25;4969389;28;20326;-84
2022/01/03 10:16:43;;;;;;;13.63;2.58;;;;;;;18.94;57.78;100987.25;4968850;28;20505;-82
2022/01/03 10:19:08;;;;;;;16.73;2.30;;;;;;;18.92;57.49;100983.88;4951959;28;20043;-84
2022/01/03 10:21:34;;;;;;;13.35;2.70;;;;;;;18.92;57.31;100989.19;4968434;28;20062;-81
2022/01/03 10:23:59;;;;;;;18.52;2.40;;;;;;;18.86;57.51;100979.09;4969877;28;20125;-83
2022/01/03 10:26:25;;;;;;;14.98;2.60;;;;;;;18.86;57.16;100989.72;4968869;28;20415;-82
2022/01/03 10:28:51;;;;;;;14.30;2.00;;;;;;;18.87;57.60;100978.97;4969795;28;20035;-84
2022/01/03 10:31:20;;;;;;;16.40;2.60;;;;;;;18.84;57.58;100983.72;4951328;28;20039;-85
2022/01/03 10:33:46;;;;;;;15.45;2.42;;;;;;;18.87;56.90;100988.78;4969338;28;20055;-81
2022/01/03 10:36:28;;;;;;;15.23;2.50;;;;;;;18.85;57.13;100980.91;4976529;28;20046;-83
2022/01/03 10:38:54;;;;;;;12.18;2.55;;;;;;;18.86;57.31;100984.41;4968287;28;20042;-84
2022/01/03 10:41:21;;;;;;;17.95;2.58;;;;;;;18.91;56.82;100967.09;4968523;28;20050;-82
2022/01/03 10:43:58;;;;;;;15.35;2.30;;;;;;;18.95;56.88;100967.66;4965991;28;20078;-83
2022/01/03 10:46:24;;;;;;;14.52;2.53;;;;;;;18.94;57.30;100966.81;4965572;28;20066;-83
2022/01/03 10:48:52;;;;;;;20.95;2.72;;;;;;;18.98;57.09;100966.53;4968357;28;20533;-84
2022/01/03 10:51:28;;;;;;;10.90;2.03;;;;;;;18.99;56.96;100963.75;4967464;28;20038;-83
2022/01/03 10:53:54;;;;;;;15.15;2.38;;;;;;;19.00;57.26;100962.75;4951745;28;20055;-82
2022/01/03 10:56:33;;;;;;;12.88;2.25;;;;;;;19.02;57.30;100960.81;4967953;28;20146;-83
2022/01/03 10:59:01;;;;;;;12.35;2.58;;;;;;;19.04;57.98;100945.53;4968489;28;20054;-82
2022/01/03 11:01:28;;;;;;;16.65;2.00;;;;;;;19.04;57.38;100950.84;4967340;28;20042;-83
2022/01/03 11:03:55;;;;;;;13.07;2.30;;;;;;;19.06;57.24;100950.72;4966933;28;20057;-83
2022/01/03 11:11:49;;;;;;;11.20;2.40;;;;;;;19.10;56.63;100947.63;4960975;28;20051;-81
2022/01/03 11:14:42;;;;;;;14.10;2.38;;;;;;;19.11;57.50;100951.97;4949423;28;20098;-81
2022/01/03 11:17:27;;;;;;;11.68;2.17;;;;;;;19.11;57.23;100937.84;4965361;28;20612;-83
2022/01/03 11:19:53;;;;;;;16.92;3.08;;;;;;;19.15;56.80;100934.78;4967834;28;20039;-83
2022/01/03 11:22:50;;;;;;;11.50;2.65;;;;;;;19.16;57.10;100933.78;4968316;28;20138;-84
2022/01/03 11:25:18;;;;;;;10.73;1.90;;;;;;;19.17;56.96;100923.97;4935268;28;20061;-83
2022/01/03 11:27:43;;;;;;;11.65;1.80;;;;;;;19.16;56.75;100930.28;4951565;28;20393;-84
2022/01/03 11:30:11;;;;;;;12.85;1.90;;;;;;;19.21;56.85;100928.06;4967633;28;20054;-83
2022/01/03 11:32:39;;;;;;;10.82;2.05;;;;;;;19.27;56.18;100929.28;4967341;28;20043;-84
2022/01/03 11:35:05;;;;;;;15.15;2.08;;;;;;;19.24;55.99;100911.81;4967142;28;20095;-82
2022/01/03 11:37:32;;;;;;;10.98;1.95;;;;;;;19.22;56.40;100915.59;4967203;28;20492;-83